createdAt,value
2019-05-28T00:00:11.540Z,14.05
2019-05-28T00:02:37.403Z,14.07
2019-05-28T00:05:04.661Z,14.07
2019-05-28T00:07:30.520Z,14.00
2019-05-28T00:09:56.390Z,14.09
2019-05-28T00:12:22.261Z,13.98
2019-05-28T00:14:48.177Z,13.98
2019-05-28T00:17:14.020Z,13.97
2019-05-28T00:19:39.866Z,14.01
2019-05-28T00:22:05.723Z,13.98
2019-05-28T00:24:31.589Z,14.00
2019-05-28T00:26:57.442Z,13.90
2019-05-28T00:29:23.305Z,13.66
2019-05-28T00:31:49.319Z,13.80
2019-05-28T00:34:15.174Z,13.51
2019-05-28T00:36:41.160Z,13.73
2019-05-28T00:39:07.316Z,13.80
2019-05-28T00:41:33.173Z,13.79
2019-05-28T00:43:59.035Z,13.83
2019-05-28T00:46:24.928Z,13.90
2019-05-28T00:48:50.763Z,13.86
2019-05-28T00:51:16.845Z,13.83
2019-05-28T00:53:42.698Z,13.78
2019-05-28T00:56:08.776Z,13.79
2019-05-28T00:58:35.739Z,13.69
2019-05-28T01:01:01.587Z,13.78
2019-05-28T01:03:27.494Z,13.73
2019-05-28T01:05:53.541Z,13.67
2019-05-28T01:08:19.394Z,13.68
2019-05-28T01:10:46.296Z,13.64
2019-05-28T01:13:12.181Z,13.65
2019-05-28T01:15:38.004Z,13.62
2019-05-28T01:18:04.076Z,13.63
2019-05-28T01:20:29.935Z,13.59
2019-05-28T01:22:55.799Z,13.56
2019-05-28T01:25:21.753Z,13.60
2019-05-28T01:27:47.648Z,13.61
2019-05-28T01:30:14.015Z,13.64
2019-05-28T01:32:39.870Z,13.57
2019-05-28T01:35:05.927Z,13.57
2019-05-28T01:37:31.799Z,13.58
2019-05-28T01:39:57.659Z,13.49
2019-05-28T01:42:23.513Z,13.49
2019-05-28T01:44:49.383Z,13.54
2019-05-28T01:47:15.250Z,13.54
2019-05-28T01:49:41.116Z,13.54
2019-05-28T01:52:06.978Z,13.48
2019-05-28T01:54:32.847Z,13.52
2019-05-28T01:56:58.718Z,13.29
2019-05-28T01:59:24.619Z,13.29
2019-05-28T02:01:50.481Z,13.30
2019-05-28T02:04:16.326Z,13.35
2019-05-28T02:06:42.202Z,13.48
2019-05-28T02:09:08.058Z,13.54
2019-05-28T02:11:33.915Z,13.54
2019-05-28T02:13:59.780Z,13.60
2019-05-28T02:16:25.643Z,13.54
2019-05-28T02:18:51.509Z,13.54
2019-05-28T02:21:17.665Z,13.60
2019-05-28T02:23:43.522Z,13.55
2019-05-28T02:26:09.395Z,13.51
2019-05-28T02:28:35.252Z,13.44
2019-05-28T02:31:01.109Z,13.43
2019-05-28T02:33:26.973Z,13.47
2019-05-28T02:35:52.821Z,13.44
2019-05-28T02:38:18.682Z,13.48
2019-05-28T02:40:47.638Z,13.48
2019-05-28T02:43:13.633Z,13.58
2019-05-28T02:45:39.504Z,13.54
2019-05-28T02:48:05.653Z,13.57
2019-05-28T02:50:44.366Z,13.54
2019-05-28T02:53:10.225Z,13.54
2019-05-28T02:55:36.099Z,13.58
2019-05-28T02:58:02.925Z,13.33
2019-05-28T03:00:29.053Z,13.18
2019-05-28T03:02:56.412Z,13.39
2019-05-28T03:05:22.768Z,13.49
2019-05-28T03:07:49.325Z,13.53
2019-05-28T03:10:21.902Z,13.49
2019-05-28T03:12:47.833Z,13.39
2019-05-28T03:15:14.068Z,13.43
2019-05-28T03:17:41.355Z,13.21
2019-05-28T03:20:07.529Z,13.39
2019-05-28T03:22:36.089Z,13.24
2019-05-28T03:25:04.296Z,13.42
2019-05-28T03:27:30.178Z,13.50
2019-05-28T03:29:56.036Z,13.43
2019-05-28T03:32:21.936Z,13.49
2019-05-28T03:34:47.778Z,13.27
2019-05-28T03:37:14.144Z,13.21
2019-05-28T03:39:41.617Z,13.17
2019-05-28T03:42:07.694Z,13.25
2019-05-28T03:44:33.543Z,13.20
2019-05-28T03:46:59.406Z,13.24
2019-05-28T03:49:25.348Z,13.34
2019-05-28T03:51:51.286Z,13.25
2019-05-28T03:54:17.246Z,13.39
2019-05-28T03:56:43.099Z,13.48
2019-05-28T03:59:08.969Z,13.35
2019-05-28T04:01:34.831Z,13.50
2019-05-28T04:04:00.687Z,13.39
2019-05-28T04:06:26.537Z,13.23
2019-05-28T04:08:52.403Z,13.29
2019-05-28T04:11:18.405Z,13.40
2019-05-28T04:13:44.271Z,13.18
2019-05-28T04:16:10.213Z,12.95
2019-05-28T04:18:36.083Z,12.71
2019-05-28T04:21:02.046Z,12.70
2019-05-28T04:23:27.911Z,12.56
2019-05-28T04:25:53.778Z,12.43
2019-05-28T04:28:19.645Z,12.35
2019-05-28T04:30:45.535Z,12.71
2019-05-28T04:33:11.372Z,12.61
2019-05-28T04:35:37.229Z,12.21
2019-05-28T04:38:03.085Z,12.32
2019-05-28T04:40:28.994Z,12.39
2019-05-28T04:42:54.865Z,12.07
2019-05-28T04:45:21.006Z,11.85
2019-05-28T04:47:46.871Z,11.93
2019-05-28T04:50:13.325Z,11.87
2019-05-28T04:52:39.178Z,12.36
2019-05-28T04:55:05.347Z,11.71
2019-05-28T04:57:31.263Z,11.79
2019-05-28T04:59:57.082Z,12.13
2019-05-28T05:02:22.969Z,11.66
2019-05-28T05:04:48.821Z,11.53
2019-05-28T05:07:14.699Z,11.42
2019-05-28T05:09:40.552Z,11.54
2019-05-28T05:12:06.428Z,11.39
2019-05-28T05:14:32.294Z,11.44
2019-05-28T05:16:58.155Z,11.46
2019-05-28T05:19:24.014Z,11.47
2019-05-28T05:21:49.879Z,11.59
2019-05-28T05:24:15.763Z,11.81
2019-05-28T05:26:41.626Z,12.08
2019-05-28T05:29:08.346Z,11.93
2019-05-28T05:31:34.201Z,11.68
2019-05-28T05:34:00.060Z,11.69
2019-05-28T05:36:25.929Z,11.68
2019-05-28T05:38:51.780Z,11.68
2019-05-28T05:41:17.640Z,11.84
2019-05-28T05:43:43.501Z,12.05
2019-05-28T05:46:09.363Z,12.10
2019-05-28T05:48:35.228Z,12.18
2019-05-28T05:51:01.083Z,11.96
2019-05-28T05:53:26.928Z,12.15
2019-05-28T05:55:52.792Z,12.36
2019-05-28T05:58:18.659Z,12.38
2019-05-28T06:00:44.577Z,12.39
2019-05-28T06:03:11.308Z,12.22
2019-05-28T06:05:37.231Z,12.46
2019-05-28T06:08:03.213Z,12.61
2019-05-28T06:10:29.050Z,12.98
2019-05-28T06:12:54.927Z,13.11
2019-05-28T06:15:20.790Z,13.06
2019-05-28T06:17:47.011Z,13.39
2019-05-28T06:20:13.468Z,13.18
2019-05-28T06:22:39.315Z,13.06
2019-05-28T06:25:05.717Z,12.85
2019-05-28T06:27:31.557Z,12.96
2019-05-28T06:29:57.401Z,12.94
2019-05-28T06:32:23.293Z,12.93
2019-05-28T06:34:49.148Z,12.79
2019-05-28T06:37:14.999Z,13.04
2019-05-28T06:39:40.856Z,13.28
2019-05-28T06:42:06.709Z,13.47
2019-05-28T06:44:32.558Z,13.61
2019-05-28T06:46:58.425Z,13.64
2019-05-28T06:49:27.294Z,13.78
2019-05-28T06:51:53.151Z,13.72
2019-05-28T06:54:19.023Z,13.73
2019-05-28T06:56:44.922Z,13.67
2019-05-28T06:59:10.814Z,13.61
2019-05-28T07:01:36.741Z,13.66
2019-05-28T07:04:13.241Z,13.75
2019-05-28T07:06:30.960Z,13.84
2019-05-28T07:08:56.819Z,13.80
2019-05-28T07:11:22.677Z,13.98
2019-05-28T07:13:48.525Z,13.74
2019-05-28T07:16:14.389Z,13.84
2019-05-28T07:18:40.259Z,13.86
2019-05-28T07:21:06.121Z,13.93
2019-05-28T07:23:31.977Z,13.91
2019-05-28T07:25:57.833Z,13.94
2019-05-28T07:28:23.690Z,13.87
2019-05-28T07:30:49.565Z,14.01
2019-05-28T07:33:15.436Z,14.05
2019-05-28T07:35:45.942Z,14.05
2019-05-28T07:38:09.026Z,14.03
2019-05-28T07:40:34.897Z,13.93
2019-05-28T07:43:00.746Z,13.95
2019-05-28T07:45:26.606Z,14.03
2019-05-28T07:47:52.462Z,13.95
2019-05-28T07:50:18.319Z,13.83
2019-05-28T07:52:44.180Z,13.81
2019-05-28T07:55:10.540Z,13.90
2019-05-28T07:57:36.402Z,13.93
2019-05-28T08:00:05.773Z,13.99
2019-05-28T08:02:31.936Z,13.98
2019-05-28T08:04:57.798Z,13.82
2019-05-28T08:07:23.787Z,13.68
2019-05-28T08:09:49.645Z,13.58
2019-05-28T08:12:15.504Z,13.32
2019-05-28T08:14:41.370Z,13.42
2019-05-28T08:17:07.232Z,13.32
2019-05-28T08:19:33.096Z,13.11
2019-05-28T08:21:58.955Z,12.96
2019-05-28T08:24:24.816Z,12.93
2019-05-28T08:26:50.677Z,13.12
2019-05-28T08:29:19.512Z,13.05
2019-05-28T08:31:45.351Z,12.91
2019-05-28T08:34:13.178Z,13.00
2019-05-28T08:36:39.638Z,12.94
2019-05-28T08:39:06.167Z,12.98
2019-05-28T08:41:32.038Z,12.94
2019-05-28T08:43:57.881Z,13.03
2019-05-28T08:46:23.748Z,13.13
2019-05-28T08:48:49.711Z,12.99
2019-05-28T08:51:15.581Z,13.16
2019-05-28T08:53:41.512Z,13.10
2019-05-28T08:56:07.409Z,13.10
2019-05-28T08:58:33.276Z,13.18
2019-05-28T09:00:59.139Z,13.13
2019-05-28T09:03:25.019Z,13.31
2019-05-28T09:05:50.886Z,13.34
2019-05-28T09:08:16.794Z,13.23
2019-05-28T09:10:42.631Z,13.12
2019-05-28T09:13:08.499Z,13.23
2019-05-28T09:15:34.468Z,13.47
2019-05-28T09:18:01.815Z,13.47
2019-05-28T09:20:27.831Z,13.39
2019-05-28T09:22:54.183Z,13.40
2019-05-28T09:25:20.160Z,13.44
2019-05-28T09:27:46.030Z,13.24
2019-05-28T09:30:13.393Z,13.24
2019-05-28T09:32:39.314Z,13.22
2019-05-28T09:35:06.221Z,13.25
2019-05-28T09:37:32.067Z,13.21
2019-05-28T09:39:57.929Z,13.32
2019-05-28T09:42:23.786Z,13.21
2019-05-28T09:44:49.634Z,13.35
2019-05-28T09:47:15.496Z,13.35
2019-05-28T09:49:41.341Z,13.50
2019-05-28T09:52:07.218Z,13.53
2019-05-28T09:54:33.074Z,13.39
2019-05-28T09:56:58.942Z,13.38
2019-05-28T09:59:40.278Z,13.44
2019-05-28T10:01:53.059Z,13.29
2019-05-28T10:04:18.919Z,13.40
2019-05-28T10:06:44.799Z,13.34
2019-05-28T10:09:10.821Z,13.28
2019-05-28T10:11:36.667Z,13.43
2019-05-28T10:14:02.949Z,13.30
2019-05-28T10:16:28.790Z,13.25
2019-05-28T10:18:55.102Z,13.39
2019-05-28T10:21:20.990Z,13.44
2019-05-28T10:23:46.858Z,13.43
2019-05-28T10:26:12.756Z,13.48
2019-05-28T10:28:38.594Z,13.49
2019-05-28T10:31:04.448Z,13.56
2019-05-28T10:33:30.308Z,13.43
2019-05-28T10:35:56.191Z,13.49
2019-05-28T10:38:22.038Z,13.44
2019-05-28T10:40:47.896Z,13.40
2019-05-28T10:43:13.926Z,13.49
2019-05-28T10:45:40.203Z,13.37
2019-05-28T10:48:06.276Z,13.51
2019-05-28T10:50:32.171Z,13.49
2019-05-28T10:52:58.032Z,13.56
2019-05-28T10:55:24.039Z,13.46
2019-05-28T10:57:49.936Z,13.58
2019-05-28T11:00:16.887Z,13.70
2019-05-28T11:02:42.833Z,13.76
2019-05-28T11:05:09.737Z,13.86
2019-05-28T11:07:35.564Z,13.97
2019-05-28T11:10:20.051Z,13.91
2019-05-28T11:12:31.076Z,14.05
2019-05-28T11:14:57.019Z,14.12
2019-05-28T11:17:22.872Z,13.98
2019-05-28T11:19:48.762Z,13.94
2019-05-28T11:22:15.261Z,13.86
2019-05-28T11:24:41.117Z,13.85
2019-05-28T11:27:07.003Z,13.83
2019-05-28T11:29:32.887Z,13.75
2019-05-28T11:31:58.775Z,13.79
2019-05-28T11:34:24.710Z,13.65
2019-05-28T11:36:50.661Z,13.67
2019-05-28T11:39:16.461Z,13.69
2019-05-28T11:41:43.296Z,13.83
2019-05-28T11:44:09.401Z,14.08
2019-05-28T11:46:35.357Z,14.27
2019-05-28T11:49:01.222Z,14.43
2019-05-28T11:51:27.092Z,14.42
2019-05-28T11:53:55.307Z,14.11
2019-05-28T11:56:21.205Z,14.04
2019-05-28T11:58:47.066Z,14.09
2019-05-28T12:01:12.925Z,14.49
2019-05-28T12:03:38.777Z,14.50
2019-05-28T12:06:04.657Z,14.38
2019-05-28T12:08:30.496Z,14.52
2019-05-28T12:10:56.366Z,14.49
2019-05-28T12:13:22.251Z,14.61
2019-05-28T12:15:48.095Z,14.58
2019-05-28T12:18:13.964Z,14.56
2019-05-28T12:20:39.830Z,14.64
2019-05-28T12:23:11.004Z,14.76
2019-05-28T12:25:33.472Z,14.73
2019-05-28T12:27:59.344Z,14.66
2019-05-28T12:30:25.694Z,14.76
2019-05-28T12:32:51.569Z,14.64
2019-05-28T12:35:29.304Z,14.57
2019-05-28T12:37:50.584Z,14.54
2019-05-28T12:40:17.481Z,14.36
2019-05-28T12:42:43.341Z,14.19
2019-05-28T12:45:11.623Z,14.24
2019-05-28T12:47:37.470Z,14.41
2019-05-28T12:50:17.825Z,14.42
2019-05-28T12:52:32.903Z,14.41
2019-05-28T12:54:58.773Z,14.99
2019-05-28T12:57:24.641Z,15.09
2019-05-28T12:59:50.519Z,15.02
2019-05-28T13:02:16.386Z,15.34
2019-05-28T13:04:42.245Z,15.68
2019-05-28T13:07:08.222Z,15.64
2019-05-28T13:09:34.079Z,15.88
2019-05-28T13:11:59.960Z,15.97
2019-05-28T13:14:26.139Z,15.85
2019-05-28T13:16:51.989Z,15.63
2019-05-28T13:19:17.838Z,15.52
2019-05-28T13:21:43.695Z,15.61
2019-05-28T13:24:09.587Z,15.12
2019-05-28T13:26:35.424Z,15.11
2019-05-28T13:29:01.293Z,15.35
2019-05-28T13:31:27.137Z,15.68
2019-05-28T13:33:53.187Z,15.31
2019-05-28T13:36:19.064Z,15.49
2019-05-28T13:38:45.434Z,15.50
2019-05-28T13:41:11.288Z,15.51
2019-05-28T13:43:37.144Z,15.89
2019-05-28T13:46:03.204Z,15.37
2019-05-28T13:48:29.063Z,15.20
2019-05-28T13:50:54.982Z,15.54
2019-05-28T13:53:20.807Z,15.53
2019-05-28T13:55:46.666Z,15.25
2019-05-28T13:58:12.532Z,15.05
2019-05-28T14:00:38.386Z,14.97
2019-05-28T14:03:07.763Z,14.92
2019-05-28T14:05:33.626Z,14.91
2019-05-28T14:07:59.479Z,14.98
2019-05-28T14:10:25.592Z,15.12
2019-05-28T14:12:51.476Z,15.55
2019-05-28T14:15:18.292Z,15.75
2019-05-28T14:17:44.174Z,15.46
2019-05-28T14:20:10.579Z,15.30
2019-05-28T14:22:36.445Z,15.45
2019-05-28T14:25:06.490Z,15.64
2019-05-28T14:27:32.933Z,16.05
2019-05-28T14:29:59.341Z,15.88
2019-05-28T14:32:25.207Z,15.82
2019-05-28T14:34:52.510Z,15.80
2019-05-28T14:37:18.630Z,15.49
2019-05-28T14:39:44.590Z,15.34
2019-05-28T14:42:10.447Z,15.25
2019-05-28T14:44:36.308Z,15.32
2019-05-28T14:47:02.830Z,15.23
2019-05-28T14:49:28.685Z,15.30
2019-05-28T14:51:54.750Z,15.29
2019-05-28T14:54:20.618Z,15.14
2019-05-28T14:56:46.493Z,15.28
2019-05-28T14:59:12.357Z,15.18
2019-05-28T15:01:38.352Z,15.06
2019-05-28T15:04:04.195Z,15.31
2019-05-28T15:06:30.075Z,15.50
2019-05-28T15:08:55.944Z,15.35
2019-05-28T15:11:21.807Z,15.61
2019-05-28T15:13:48.180Z,15.99
2019-05-28T15:16:14.062Z,16.21
2019-05-28T15:18:39.916Z,15.81
2019-05-28T15:21:05.782Z,15.74
2019-05-28T15:23:31.634Z,15.47
2019-05-28T15:25:57.542Z,15.32
2019-05-28T15:28:23.393Z,15.68
2019-05-28T15:30:49.461Z,15.95
2019-05-28T15:33:15.322Z,16.04
2019-05-28T15:35:41.176Z,16.57
2019-05-28T15:38:07.097Z,16.55
2019-05-28T15:40:32.945Z,16.37
2019-05-28T15:43:06.237Z,16.27
2019-05-28T15:45:26.805Z,16.24
2019-05-28T15:47:52.655Z,15.90
2019-05-28T15:50:18.668Z,15.80
2019-05-28T15:52:44.667Z,15.91
2019-05-28T15:55:10.852Z,15.50
2019-05-28T15:57:36.733Z,15.65
2019-05-28T16:00:08.235Z,15.70
2019-05-28T16:02:34.209Z,15.92
2019-05-28T16:05:00.105Z,15.85
2019-05-28T16:07:25.950Z,16.03
2019-05-28T16:09:55.973Z,16.20
2019-05-28T16:12:19.586Z,16.04
2019-05-28T16:14:45.511Z,16.17
2019-05-28T16:17:11.377Z,16.37
2019-05-28T16:19:37.240Z,16.15
2019-05-28T16:22:03.163Z,16.06
2019-05-28T16:24:28.992Z,15.88
2019-05-28T16:26:54.844Z,15.96
2019-05-28T16:29:20.702Z,15.90
2019-05-28T16:31:46.573Z,15.88
2019-05-28T16:34:12.426Z,15.83
2019-05-28T16:36:38.295Z,15.90
2019-05-28T16:39:06.950Z,16.15
2019-05-28T16:41:32.805Z,16.28
2019-05-28T16:43:58.663Z,16.12
2019-05-28T16:46:25.113Z,16.18
2019-05-28T16:48:50.956Z,16.10
2019-05-28T16:51:16.854Z,15.83
2019-05-28T16:53:42.799Z,15.84
2019-05-28T16:56:08.734Z,15.87
2019-05-28T16:58:34.595Z,15.89
2019-05-28T17:01:20.833Z,15.79
2019-05-28T17:03:28.333Z,15.65
2019-05-28T17:05:54.284Z,15.76
2019-05-28T17:08:20.256Z,15.84
2019-05-28T17:10:46.116Z,15.74
2019-05-28T17:13:11.978Z,15.76
2019-05-28T17:15:38.755Z,15.65
2019-05-28T17:18:04.627Z,15.90
2019-05-28T17:20:30.501Z,15.88
2019-05-28T17:22:56.385Z,15.83
2019-05-28T17:25:24.029Z,15.80
2019-05-28T17:27:50.329Z,15.77
2019-05-28T17:30:22.723Z,15.84
2019-05-28T17:32:44.427Z,15.72
2019-05-28T17:35:11.062Z,15.61
2019-05-28T17:37:36.933Z,15.50
2019-05-28T17:40:04.228Z,15.38
2019-05-28T17:42:30.116Z,15.29
2019-05-28T17:44:55.989Z,15.39
2019-05-28T17:47:21.903Z,15.39
2019-05-28T17:49:47.768Z,15.30
2019-05-28T17:52:13.630Z,15.12
2019-05-28T17:54:39.513Z,15.11
2019-05-28T17:57:05.375Z,15.09
2019-05-28T17:59:31.222Z,15.12
2019-05-28T18:01:57.086Z,15.28
2019-05-28T18:04:23.066Z,15.23
2019-05-28T18:06:48.921Z,15.23
2019-05-28T18:09:14.790Z,15.04
2019-05-28T18:11:40.663Z,15.14
2019-05-28T18:14:06.525Z,14.97
2019-05-28T18:16:32.400Z,14.93
2019-05-28T18:19:00.645Z,14.89
2019-05-28T18:21:26.020Z,14.91
2019-05-28T18:23:51.868Z,14.85
2019-05-28T18:26:17.729Z,14.78
2019-05-28T18:28:43.589Z,14.71
2019-05-28T18:31:09.452Z,14.70
2019-05-28T18:33:35.302Z,14.55
2019-05-28T18:36:01.158Z,14.52
2019-05-28T18:38:27.487Z,14.34
2019-05-28T18:40:53.370Z,14.22
2019-05-28T18:43:19.229Z,14.20
2019-05-28T18:45:45.766Z,14.12
2019-05-28T18:48:11.508Z,14.16
2019-05-28T18:50:37.333Z,14.05
2019-05-28T18:53:03.188Z,14.22
2019-05-28T18:55:29.052Z,14.01
2019-05-28T18:57:54.977Z,13.91
2019-05-28T19:00:20.968Z,13.93
2019-05-28T19:02:46.848Z,13.99
2019-05-28T19:05:12.910Z,13.88
2019-05-28T19:07:38.769Z,13.91
2019-05-28T19:10:05.494Z,13.87
2019-05-28T19:12:31.365Z,13.81
2019-05-28T19:14:57.255Z,13.67
2019-05-28T19:17:23.127Z,13.67
2019-05-28T19:19:49.020Z,13.56
2019-05-28T19:22:14.878Z,13.58
2019-05-28T19:24:40.730Z,13.51
2019-05-28T19:27:06.595Z,13.53
2019-05-28T19:29:32.655Z,13.54
2019-05-28T19:31:58.518Z,13.41
2019-05-28T19:34:25.196Z,13.37
2019-05-28T19:36:51.883Z,13.42
2019-05-28T19:39:17.866Z,13.32
2019-05-28T19:41:53.557Z,13.18
2019-05-28T19:44:11.544Z,13.27
2019-05-28T19:46:37.546Z,13.08
2019-05-28T19:49:03.413Z,13.17
2019-05-28T19:51:29.286Z,13.12
2019-05-28T19:53:55.203Z,13.13
2019-05-28T19:56:21.062Z,13.10
2019-05-28T19:58:46.922Z,13.18
2019-05-28T20:01:12.793Z,13.21
2019-05-28T20:03:38.676Z,13.28
2019-05-28T20:06:04.531Z,13.06
2019-05-28T20:08:30.422Z,13.11
2019-05-28T20:10:56.302Z,12.77
2019-05-28T20:13:22.175Z,12.86
2019-05-28T20:15:48.026Z,13.12
2019-05-28T20:18:26.277Z,13.03
2019-05-28T20:20:41.695Z,12.72
2019-05-28T20:23:07.574Z,12.66
2019-05-28T20:25:33.449Z,12.53
2019-05-28T20:27:59.312Z,12.82
2019-05-28T20:30:25.327Z,12.60
2019-05-28T20:32:51.218Z,12.45
2019-05-28T20:35:17.082Z,12.37
2019-05-28T20:37:42.937Z,12.38
2019-05-28T20:40:10.229Z,12.47
2019-05-28T20:42:36.998Z,12.41
2019-05-28T20:45:11.883Z,12.35
2019-05-28T20:47:37.510Z,12.32
2019-05-28T20:50:06.054Z,12.60
2019-05-28T20:52:33.156Z,12.58
2019-05-28T20:54:59.215Z,12.61
2019-05-28T20:57:25.197Z,12.32
2019-05-28T20:59:51.493Z,12.49
2019-05-28T21:02:19.220Z,12.63
2019-05-28T21:04:45.200Z,12.56
2019-05-28T21:07:11.061Z,12.33
2019-05-28T21:09:36.957Z,12.31
2019-05-28T21:12:03.516Z,12.02
2019-05-28T21:14:29.379Z,12.24
2019-05-28T21:16:55.237Z,12.09
2019-05-28T21:19:21.103Z,12.02
2019-05-28T21:21:47.852Z,11.98
2019-05-28T21:24:13.735Z,12.21
2019-05-28T21:26:39.585Z,12.16
2019-05-28T21:29:05.551Z,12.16
2019-05-28T21:31:31.517Z,11.87
2019-05-28T21:33:57.374Z,11.99
2019-05-28T21:36:23.245Z,11.73
2019-05-28T21:38:49.208Z,11.48
2019-05-28T21:41:15.067Z,11.66
2019-05-28T21:43:40.936Z,11.63
2019-05-28T21:46:06.792Z,11.67
2019-05-28T21:48:32.644Z,11.57
2019-05-28T21:50:58.783Z,11.54
2019-05-28T21:53:24.691Z,11.46
2019-05-28T21:55:50.562Z,11.74
2019-05-28T21:58:16.409Z,11.45
2019-05-28T22:00:58.158Z,11.65
2019-05-28T22:03:24.024Z,11.63
2019-05-28T22:05:49.860Z,11.53
2019-05-28T22:08:15.732Z,11.72
2019-05-28T22:10:41.592Z,11.66
2019-05-28T22:13:20.447Z,11.58
2019-05-28T22:15:35.227Z,11.44
2019-05-28T22:18:02.161Z,11.60
2019-05-28T22:20:28.138Z,11.63
2019-05-28T22:22:54.138Z,11.65
2019-05-28T22:25:19.987Z,11.63
2019-05-28T22:27:45.852Z,11.61
2019-05-28T22:30:12.620Z,11.60
2019-05-28T22:32:38.472Z,11.49
2019-05-28T22:35:05.324Z,11.46
2019-05-28T22:37:31.188Z,11.34
2019-05-28T22:39:57.319Z,11.32
2019-05-28T22:42:23.210Z,11.29
2019-05-28T22:44:49.066Z,11.22
2019-05-28T22:47:14.921Z,11.11
2019-05-28T22:49:40.772Z,11.03
2019-05-28T22:52:06.661Z,11.10
2019-05-28T22:54:32.524Z,11.02
2019-05-28T22:56:58.374Z,10.89
2019-05-28T22:59:24.247Z,10.83
2019-05-28T23:01:50.087Z,10.74
2019-05-28T23:04:15.938Z,10.79
2019-05-28T23:06:41.795Z,10.74
2019-05-28T23:09:07.845Z,10.77
2019-05-28T23:11:33.718Z,10.78
2019-05-28T23:13:59.880Z,10.65
2019-05-28T23:16:25.739Z,10.62
2019-05-28T23:18:51.597Z,10.63
2019-05-28T23:21:17.464Z,10.65
2019-05-28T23:23:43.346Z,10.61
2019-05-28T23:26:09.412Z,10.67
2019-05-28T23:28:35.365Z,10.53
2019-05-28T23:31:01.812Z,10.53
2019-05-28T23:33:27.775Z,10.41
2019-05-28T23:35:53.631Z,10.31
2019-05-28T23:38:19.507Z,10.20
2019-05-28T23:40:45.353Z,10.25
2019-05-28T23:43:11.601Z,10.23
2019-05-28T23:45:37.585Z,10.18
2019-05-28T23:48:07.396Z,10.24
2019-05-28T23:50:31.594Z,10.12
2019-05-28T23:52:57.512Z,10.14
2019-05-28T23:55:23.314Z,10.10
2019-05-28T23:57:49.174Z,10.07
